createdAt,value
2018-10-17T00:00:30.627Z,8.79
2018-10-17T00:01:30.469Z,8.76
2018-10-17T00:02:30.551Z,8.83
2018-10-17T00:03:30.484Z,8.8
2018-10-17T00:04:30.565Z,8.81
2018-10-17T00:05:30.700Z,8.78
2018-10-17T00:06:30.478Z,8.79
2018-10-17T00:07:31.045Z,8.78
2018-10-17T00:08:30.473Z,8.77
2018-10-17T00:09:30.442Z,8.72
2018-10-17T00:10:30.513Z,8.76
2018-10-17T00:11:30.494Z,8.75
2018-10-17T00:12:30.474Z,8.8
2018-10-17T00:13:30.532Z,8.78
2018-10-17T00:14:30.459Z,8.77
2018-10-17T00:15:30.444Z,8.71
2018-10-17T00:16:30.416Z,8.7
2018-10-17T00:17:30.488Z,8.67
2018-10-17T00:18:30.413Z,8.71
2018-10-17T00:19:30.420Z,8.77
2018-10-17T00:20:30.424Z,8.74
2018-10-17T00:21:30.611Z,8.69
2018-10-17T00:23:30.489Z,8.8
2018-10-17T00:24:30.530Z,8.76
2018-10-17T00:25:30.408Z,8.74
2018-10-17T00:26:30.422Z,8.75
2018-10-17T00:27:30.449Z,8.78
2018-10-17T00:28:30.383Z,8.72
2018-10-17T00:29:30.436Z,8.68
2018-10-17T00:30:30.416Z,8.67
2018-10-17T00:31:30.754Z,8.64
2018-10-17T00:32:30.516Z,8.7
2018-10-17T00:33:30.398Z,8.69
2018-10-17T00:34:30.416Z,8.75
2018-10-17T00:35:30.380Z,8.69
2018-10-17T00:36:30.393Z,8.75
2018-10-17T00:37:30.397Z,8.66
2018-10-17T00:38:30.393Z,8.65
2018-10-17T00:39:30.360Z,8.7
2018-10-17T00:40:31.046Z,8.74
2018-10-17T00:41:30.420Z,8.81
2018-10-17T00:42:30.383Z,8.79
2018-10-17T00:43:30.378Z,8.73
2018-10-17T00:45:30.389Z,8.79
2018-10-17T00:46:30.422Z,8.8
2018-10-17T00:47:30.398Z,8.76
2018-10-17T00:48:30.372Z,8.8
2018-10-17T00:49:30.379Z,8.8
2018-10-17T00:50:30.465Z,8.79
2018-10-17T00:51:30.399Z,8.77
2018-10-17T00:52:30.434Z,8.8
2018-10-17T00:53:30.383Z,8.76
2018-10-17T00:54:30.456Z,8.76
2018-10-17T00:55:30.397Z,8.74
2018-10-17T00:56:30.502Z,8.67
2018-10-17T00:57:30.376Z,8.68
2018-10-17T00:58:30.776Z,8.64
2018-10-17T00:59:30.362Z,8.7
2018-10-17T01:00:30.759Z,8.67
2018-10-17T01:01:30.560Z,8.69
2018-10-17T01:02:30.617Z,8.62
2018-10-17T01:03:30.394Z,8.6
2018-10-17T01:04:30.723Z,8.56
2018-10-17T01:05:30.411Z,8.56
2018-10-17T01:06:30.425Z,8.58
2018-10-17T01:07:30.523Z,8.6
2018-10-17T01:08:30.380Z,8.59
2018-10-17T01:09:30.390Z,8.57
2018-10-17T01:10:30.500Z,8.68
2018-10-17T01:11:30.373Z,8.67
2018-10-17T01:12:30.438Z,8.67
2018-10-17T01:13:30.347Z,8.68
2018-10-17T01:14:30.453Z,8.64
2018-10-17T01:15:30.357Z,8.66
2018-10-17T01:16:30.504Z,8.69
2018-10-17T01:17:30.477Z,8.67
2018-10-17T01:18:30.816Z,8.65
2018-10-17T01:19:30.590Z,8.62
2018-10-17T01:20:30.447Z,8.6
2018-10-17T01:21:30.343Z,8.63
2018-10-17T01:22:30.331Z,8.61
2018-10-17T01:23:30.310Z,8.63
2018-10-17T01:24:30.372Z,8.63
2018-10-17T01:25:30.628Z,8.58
2018-10-17T01:26:30.516Z,8.59
2018-10-17T01:27:30.361Z,8.62
2018-10-17T01:28:30.358Z,8.59
2018-10-17T01:29:30.373Z,8.59
2018-10-17T01:30:30.445Z,8.61
2018-10-17T01:31:30.435Z,8.68
2018-10-17T01:32:30.335Z,8.62
2018-10-17T01:33:30.516Z,8.67
2018-10-17T01:34:30.326Z,8.67
2018-10-17T01:35:30.395Z,8.59
2018-10-17T01:36:30.552Z,8.64
2018-10-17T01:37:30.436Z,8.64
2018-10-17T01:38:30.532Z,8.67
2018-10-17T01:39:30.707Z,8.64
2018-10-17T01:40:30.418Z,8.66
2018-10-17T01:41:30.367Z,8.58
2018-10-17T01:42:30.583Z,8.56
2018-10-17T01:43:30.431Z,8.54
2018-10-17T01:44:30.434Z,8.65
2018-10-17T01:45:30.340Z,8.57
2018-10-17T01:46:30.403Z,8.56
2018-10-17T01:47:30.428Z,8.52
2018-10-17T01:48:30.471Z,8.53
2018-10-17T01:49:30.367Z,8.55
2018-10-17T01:50:30.349Z,8.55
2018-10-17T01:51:30.364Z,8.54
2018-10-17T01:52:30.621Z,8.53
2018-10-17T01:53:30.275Z,8.54
2018-10-17T01:54:30.277Z,8.54
2018-10-17T01:55:30.329Z,8.52
2018-10-17T01:56:30.376Z,8.45
2018-10-17T01:57:30.271Z,8.46
2018-10-17T01:58:30.331Z,8.52
2018-10-17T01:59:30.308Z,8.62
2018-10-17T02:00:30.374Z,8.6
2018-10-17T02:01:30.349Z,8.62
2018-10-17T02:02:30.330Z,8.62
2018-10-17T02:03:30.391Z,8.58
2018-10-17T02:04:30.299Z,8.6
2018-10-17T02:05:30.310Z,8.58
2018-10-17T02:06:30.312Z,8.54
2018-10-17T02:07:30.300Z,8.54
2018-10-17T02:08:30.358Z,8.47
2018-10-17T02:09:30.305Z,8.44
2018-10-17T02:10:30.294Z,8.54
2018-10-17T02:11:30.272Z,8.6
2018-10-17T02:12:30.447Z,8.54
2018-10-17T02:14:30.579Z,8.62
2018-10-17T02:15:30.425Z,8.59
2018-10-17T02:16:30.278Z,8.58
2018-10-17T02:17:30.262Z,8.55
2018-10-17T02:18:30.607Z,8.55
2018-10-17T02:19:30.457Z,8.56
2018-10-17T02:20:30.290Z,8.54
2018-10-17T02:21:30.324Z,8.5
2018-10-17T02:22:30.272Z,8.47
2018-10-17T02:23:30.356Z,8.56
2018-10-17T02:24:30.249Z,8.56
2018-10-17T02:25:30.296Z,8.58
2018-10-17T02:26:30.560Z,8.57
2018-10-17T02:27:30.257Z,8.57
2018-10-17T02:28:30.264Z,8.55
2018-10-17T02:29:30.472Z,8.55
2018-10-17T02:30:30.302Z,8.56
2018-10-17T02:31:30.310Z,8.55
2018-10-17T02:32:30.265Z,8.53
2018-10-17T02:33:30.253Z,8.55
2018-10-17T02:34:30.202Z,8.55
2018-10-17T02:35:30.229Z,8.54
2018-10-17T02:36:30.378Z,8.55
2018-10-17T02:37:30.485Z,8.56
2018-10-17T02:38:30.418Z,8.52
2018-10-17T02:39:30.694Z,8.53
2018-10-17T02:40:30.375Z,8.51
2018-10-17T02:41:30.272Z,8.49
2018-10-17T02:42:30.253Z,8.49
2018-10-17T02:43:30.362Z,8.47
2018-10-17T02:44:30.229Z,8.47
2018-10-17T02:45:30.232Z,8.46
2018-10-17T02:46:30.426Z,8.44
2018-10-17T02:47:30.287Z,8.39
2018-10-17T02:48:30.252Z,8.4
2018-10-17T02:49:30.599Z,8.4
2018-10-17T02:50:30.302Z,8.37
2018-10-17T02:51:30.295Z,8.39
2018-10-17T02:52:30.311Z,8.38
2018-10-17T02:53:30.224Z,8.37
2018-10-17T02:54:30.216Z,8.37
2018-10-17T02:55:30.211Z,8.36
2018-10-17T02:56:30.336Z,8.35
2018-10-17T02:57:30.235Z,8.34
2018-10-17T02:58:30.306Z,8.33
2018-10-17T02:59:30.233Z,8.35
2018-10-17T03:00:30.219Z,8.36
2018-10-17T03:01:30.439Z,8.35
2018-10-17T03:02:30.331Z,8.35
2018-10-17T03:03:30.595Z,8.3
2018-10-17T03:04:34.262Z,8.31
2018-10-17T03:05:30.304Z,8.33
2018-10-17T03:06:30.489Z,8.27
2018-10-17T03:07:30.442Z,8.27
2018-10-17T03:08:30.230Z,8.27
2018-10-17T03:09:30.520Z,8.26
2018-10-17T03:10:30.232Z,8.29
2018-10-17T03:11:30.231Z,8.31
2018-10-17T03:12:30.255Z,8.28
2018-10-17T03:13:30.225Z,8.27
2018-10-17T03:14:30.259Z,8.24
2018-10-17T03:15:30.219Z,8.27
2018-10-17T03:16:30.180Z,8.25
2018-10-17T03:17:30.191Z,8.24
2018-10-17T03:18:30.387Z,8.25
2018-10-17T03:19:30.175Z,8.24
2018-10-17T03:20:30.180Z,8.23
2018-10-17T03:21:30.223Z,8.22
2018-10-17T03:22:30.190Z,8.23
2018-10-17T03:23:30.454Z,8.22
2018-10-17T03:24:30.194Z,8.24
2018-10-17T03:25:30.218Z,8.2
2018-10-17T03:26:30.242Z,8.17
2018-10-17T03:27:30.200Z,8.17
2018-10-17T03:28:30.157Z,8.19
2018-10-17T03:29:30.142Z,8.22
2018-10-17T03:30:30.475Z,8.23
2018-10-17T03:31:31.481Z,8.23
2018-10-17T03:32:30.179Z,8.22
2018-10-17T03:33:30.226Z,8.17
2018-10-17T03:34:30.166Z,8.18
2018-10-17T03:35:30.316Z,8.22
2018-10-17T03:36:30.168Z,8.23
2018-10-17T03:37:30.211Z,8.24
2018-10-17T03:38:30.181Z,8.23
2018-10-17T03:39:30.157Z,8.2
2018-10-17T03:40:30.196Z,8.21
2018-10-17T03:41:30.196Z,8.21
2018-10-17T03:42:30.204Z,8.19
2018-10-17T03:43:30.140Z,8.16
2018-10-17T03:44:30.164Z,8.15
2018-10-17T03:45:30.591Z,8.17
2018-10-17T03:46:30.149Z,8.18
2018-10-17T03:47:30.203Z,8.2
2018-10-17T03:48:30.202Z,8.19
2018-10-17T03:49:30.515Z,8.21
2018-10-17T03:50:30.279Z,8.2
2018-10-17T03:51:30.100Z,8.21
2018-10-17T03:52:30.157Z,8.22
2018-10-17T03:53:30.142Z,8.23
2018-10-17T03:54:30.149Z,8.23
2018-10-17T03:55:30.239Z,8.23
2018-10-17T03:56:30.200Z,8.23
2018-10-17T03:57:30.240Z,8.25
2018-10-17T03:58:30.251Z,8.26
2018-10-17T03:59:32.147Z,8.26
2018-10-17T04:00:30.111Z,8.23
2018-10-17T04:01:30.133Z,8.21
2018-10-17T04:02:30.509Z,8.22
2018-10-17T04:03:30.176Z,8.2
2018-10-17T04:04:30.147Z,8.2
2018-10-17T04:05:30.281Z,8.19
2018-10-17T04:06:30.237Z,8.19
2018-10-17T04:07:30.157Z,8.19
2018-10-17T04:08:30.369Z,8.19
2018-10-17T04:09:30.492Z,8.23
2018-10-17T04:10:30.643Z,8.28
2018-10-17T04:11:30.234Z,8.23
2018-10-17T04:12:30.148Z,8.22
2018-10-17T04:13:30.205Z,8.19
2018-10-17T04:14:30.163Z,8.21
2018-10-17T04:15:30.221Z,8.18
2018-10-17T04:16:30.183Z,8.16
2018-10-17T04:17:30.243Z,8.14
2018-10-17T04:18:30.251Z,8.15
2018-10-17T04:19:30.644Z,8.15
2018-10-17T04:20:30.196Z,8.14
2018-10-17T04:21:30.104Z,8.16
2018-10-17T04:22:30.701Z,8.17
2018-10-17T04:23:30.175Z,8.18
2018-10-17T04:24:30.188Z,8.26
2018-10-17T04:25:30.208Z,8.3
2018-10-17T04:26:30.099Z,8.25
2018-10-17T04:27:30.219Z,8.25
2018-10-17T04:28:30.516Z,8.26
2018-10-17T04:29:30.236Z,8.23
2018-10-17T04:30:30.139Z,8.22
2018-10-17T04:31:30.370Z,8.23
2018-10-17T04:32:30.716Z,8.26
2018-10-17T04:33:30.372Z,8.29
2018-10-17T04:34:30.157Z,8.28
2018-10-17T04:35:30.102Z,8.25
2018-10-17T04:36:30.182Z,8.26
2018-10-17T04:37:30.650Z,8.25
2018-10-17T04:38:30.668Z,8.23
2018-10-17T04:39:30.207Z,8.24
2018-10-17T04:40:30.085Z,8.29
2018-10-17T04:41:30.483Z,8.3
2018-10-17T04:42:30.073Z,8.27
2018-10-17T04:43:30.369Z,8.23
2018-10-17T04:44:30.172Z,8.23
2018-10-17T04:45:30.112Z,8.28
2018-10-17T04:46:30.068Z,8.24
2018-10-17T04:47:30.370Z,8.25
2018-10-17T04:48:30.175Z,8.21
2018-10-17T04:49:30.097Z,8.24
2018-10-17T04:50:30.224Z,8.2
2018-10-17T04:51:30.083Z,8.26
2018-10-17T04:52:30.447Z,8.25
2018-10-17T04:53:30.327Z,8.21
2018-10-17T04:54:30.115Z,8.22
2018-10-17T04:55:30.072Z,8.19
2018-10-17T04:56:30.022Z,8.18
2018-10-17T04:57:30.110Z,8.14
2018-10-17T04:58:30.111Z,8.13
2018-10-17T04:59:30.074Z,8.09
2018-10-17T05:00:30.209Z,8.11
2018-10-17T05:01:30.084Z,8.1
2018-10-17T05:02:30.036Z,8.08
2018-10-17T05:03:30.019Z,8.11
2018-10-17T05:04:30.458Z,8.13
2018-10-17T05:05:30.057Z,8.13
2018-10-17T05:06:30.014Z,8.11
2018-10-17T05:07:30.100Z,8.11
2018-10-17T05:08:30.102Z,8.1
2018-10-17T05:09:29.648Z,8.12
2018-10-17T05:10:30.280Z,8.08
2018-10-17T05:11:30.166Z,8.08
2018-10-17T05:12:30.114Z,8.08
2018-10-17T05:13:30.296Z,8.08
2018-10-17T05:14:30.121Z,8.09
2018-10-17T05:15:30.125Z,8.09
2018-10-17T05:16:30.539Z,8.11
2018-10-17T05:17:30.376Z,8.09
2018-10-17T05:18:30.295Z,8.09
2018-10-17T05:19:30.286Z,8.06
2018-10-17T05:20:30.169Z,8.06
2018-10-17T05:21:30.116Z,8.07
2018-10-17T05:22:30.303Z,8.07
2018-10-17T05:23:30.055Z,8.04
2018-10-17T05:24:30.242Z,8.01
2018-10-17T05:25:29.900Z,7.98
2018-10-17T05:26:30.136Z,7.97
2018-10-17T05:27:30.032Z,7.96
2018-10-17T05:28:30.110Z,7.96
2018-10-17T05:29:30.184Z,7.94
2018-10-17T05:30:30.090Z,7.94
2018-10-17T05:31:30.395Z,7.94
2018-10-17T05:32:30.292Z,7.91
2018-10-17T05:33:30.080Z,7.95
2018-10-17T05:34:30.076Z,7.95
2018-10-17T05:35:30.126Z,7.94
2018-10-17T05:36:29.994Z,7.92
2018-10-17T05:37:30.704Z,7.94
2018-10-17T05:38:30.116Z,7.94
2018-10-17T05:39:29.977Z,7.94
2018-10-17T05:40:30.097Z,7.93
2018-10-17T05:41:30.026Z,7.94
2018-10-17T05:42:30.099Z,7.97
2018-10-17T05:43:30.045Z,7.96
2018-10-17T05:44:30.749Z,7.97
2018-10-17T05:45:30.185Z,7.97
2018-10-17T05:46:30.176Z,7.96
2018-10-17T05:47:30.098Z,7.97
2018-10-17T05:48:30.116Z,7.95
2018-10-17T05:49:29.996Z,7.95
2018-10-17T05:50:29.888Z,7.95
2018-10-17T05:51:30.104Z,7.95
2018-10-17T05:52:30.026Z,7.95
2018-10-17T05:53:30.059Z,7.94
2018-10-17T05:54:30.152Z,7.93
2018-10-17T05:55:30.366Z,7.93
2018-10-17T05:56:29.857Z,7.93
2018-10-17T05:57:30.091Z,7.94
2018-10-17T05:58:30.160Z,7.94
2018-10-17T05:59:29.992Z,7.94
2018-10-17T06:00:30.052Z,7.95
2018-10-17T06:01:30.751Z,7.94
2018-10-17T06:02:31.091Z,7.95
2018-10-17T06:03:29.990Z,7.96
2018-10-17T06:04:30.359Z,7.94
2018-10-17T06:05:30.322Z,7.93
2018-10-17T06:06:29.916Z,7.94
2018-10-17T06:07:30.072Z,7.95
2018-10-17T06:08:29.984Z,7.98
2018-10-17T06:09:30.235Z,7.99
2018-10-17T06:10:30.068Z,8.09
2018-10-17T06:11:30.125Z,8.03
2018-10-17T06:12:30.310Z,8.02
2018-10-17T06:13:30.220Z,8.07
2018-10-17T06:14:30.396Z,8.05
2018-10-17T06:15:30.079Z,8.09
2018-10-17T06:16:30.211Z,8.12
2018-10-17T06:17:30.990Z,8.1
2018-10-17T06:18:30.054Z,8.08
2018-10-17T06:19:29.949Z,8.11
2018-10-17T06:20:29.946Z,8.11
2018-10-17T06:21:29.962Z,8.1
2018-10-17T06:22:30.047Z,8.07
2018-10-17T06:23:29.926Z,8.09
2018-10-17T06:24:30.336Z,8.11
2018-10-17T06:25:30.366Z,8.1
2018-10-17T06:26:30.416Z,8.14
2018-10-17T06:27:30.065Z,8.12
2018-10-17T06:28:30.347Z,8.13
2018-10-17T06:29:29.947Z,8.15
2018-10-17T06:30:30.237Z,8.17
2018-10-17T06:31:29.957Z,8.19
2018-10-17T06:32:29.908Z,8.17
2018-10-17T06:33:29.932Z,8.18
2018-10-17T06:34:30.353Z,8.21
2018-10-17T06:35:29.900Z,8.17
2018-10-17T06:36:30.212Z,8.22
2018-10-17T06:37:29.972Z,8.2
2018-10-17T06:38:29.907Z,8.23
2018-10-17T06:39:29.936Z,8.24
2018-10-17T06:40:29.926Z,8.26
2018-10-17T06:41:29.996Z,8.22
2018-10-17T06:42:29.928Z,8.28
2018-10-17T06:43:30.644Z,8.28
2018-10-17T06:44:29.928Z,8.35
2018-10-17T06:45:30.181Z,8.36
2018-10-17T06:46:30.064Z,8.38
2018-10-17T06:47:29.996Z,8.41
2018-10-17T06:48:30.058Z,8.43
2018-10-17T06:49:30.298Z,8.44
2018-10-17T06:50:29.921Z,8.46
2018-10-17T06:51:29.924Z,8.43
2018-10-17T06:52:30.241Z,8.45
2018-10-17T06:53:29.991Z,8.46
2018-10-17T06:54:31.264Z,8.51
2018-10-17T06:55:29.873Z,8.49
2018-10-17T06:56:29.933Z,8.52
2018-10-17T06:57:30.287Z,8.59
2018-10-17T06:58:29.919Z,8.6
2018-10-17T06:59:29.892Z,8.55
2018-10-17T07:00:29.917Z,8.6
2018-10-17T07:01:30.164Z,8.62
2018-10-17T07:02:29.917Z,8.6
2018-10-17T07:03:30.208Z,8.61
2018-10-17T07:04:30.100Z,8.6
2018-10-17T07:05:29.884Z,8.64
2018-10-17T07:06:30.137Z,8.64
2018-10-17T07:07:30.188Z,8.75
2018-10-17T07:08:30.606Z,8.73
2018-10-17T07:09:30.156Z,8.78
2018-10-17T07:10:29.892Z,8.76
2018-10-17T07:11:30.151Z,8.86
2018-10-17T07:12:29.857Z,8.83
2018-10-17T07:13:29.957Z,8.8
2018-10-17T07:14:29.844Z,8.9
2018-10-17T07:15:31.455Z,8.89
2018-10-17T07:16:29.841Z,8.91
2018-10-17T07:17:30.095Z,9
2018-10-17T07:18:29.900Z,9.03
2018-10-17T07:19:29.856Z,9.04
2018-10-17T07:20:30.007Z,9.06
2018-10-17T07:21:29.976Z,9.05
2018-10-17T07:22:30.171Z,9.06
2018-10-17T07:23:29.867Z,9.09
2018-10-17T07:24:29.881Z,9.11
2018-10-17T07:25:29.866Z,9.14
2018-10-17T07:26:29.905Z,9.11
2018-10-17T07:27:29.942Z,9.1
2018-10-17T07:28:30.169Z,9.08
2018-10-17T07:29:31.832Z,9.08
2018-10-17T07:30:30.034Z,9.02
2018-10-17T07:31:29.874Z,9.03
2018-10-17T07:32:30.194Z,9.02
2018-10-17T07:33:29.831Z,8.98
2018-10-17T07:34:30.108Z,9
2018-10-17T07:35:30.533Z,9.01
2018-10-17T07:36:29.831Z,9
2018-10-17T07:37:30.105Z,9.02
2018-10-17T07:38:30.215Z,9.04
2018-10-17T07:39:29.858Z,9.05
2018-10-17T07:40:29.904Z,9.08
2018-10-17T07:41:29.866Z,9.09
2018-10-17T07:42:29.869Z,9.09
2018-10-17T07:43:29.880Z,9.11
2018-10-17T07:44:29.983Z,9.08
2018-10-17T07:45:30.249Z,9.11
2018-10-17T07:46:30.072Z,9.15
2018-10-17T07:47:29.869Z,9.18
2018-10-17T07:48:29.792Z,9.17
2018-10-17T07:49:29.852Z,9.14
2018-10-17T07:50:29.863Z,9.23
2018-10-17T07:51:29.796Z,9.21
2018-10-17T07:52:29.875Z,9.21
2018-10-17T07:53:30.821Z,9.23
2018-10-17T07:54:29.801Z,9.23
2018-10-17T07:55:29.817Z,9.3
2018-10-17T07:56:29.821Z,9.33
2018-10-17T07:57:29.830Z,9.4
2018-10-17T07:58:29.829Z,9.42
2018-10-17T07:59:30.139Z,9.41
2018-10-17T08:00:30.933Z,9.42
2018-10-17T08:01:29.807Z,9.41
2018-10-17T08:02:29.841Z,9.38
2018-10-17T08:03:30.127Z,9.39
2018-10-17T08:04:29.835Z,9.42
2018-10-17T08:05:29.880Z,9.43
2018-10-17T08:06:30.230Z,9.43
2018-10-17T08:07:29.903Z,9.44
2018-10-17T08:08:30.194Z,9.43
2018-10-17T08:09:29.806Z,9.43
2018-10-17T08:10:29.819Z,9.45
2018-10-17T08:11:29.834Z,9.5
2018-10-17T08:12:29.872Z,9.46
2018-10-17T08:13:29.841Z,9.47
2018-10-17T08:14:29.877Z,9.49
2018-10-17T08:15:29.820Z,9.5
2018-10-17T08:16:30.162Z,9.51
2018-10-17T08:17:29.947Z,9.53
2018-10-17T08:18:29.803Z,9.55
2018-10-17T08:19:29.759Z,9.58
2018-10-17T08:20:29.802Z,9.57
2018-10-17T08:21:30.794Z,9.62
2018-10-17T08:22:29.860Z,9.62
2018-10-17T08:23:30.155Z,9.58
2018-10-17T08:24:29.764Z,9.59
2018-10-17T08:25:29.787Z,9.63
2018-10-17T08:26:29.777Z,9.61
2018-10-17T08:27:30.861Z,9.62
2018-10-17T08:28:29.982Z,9.65
2018-10-17T08:29:29.792Z,9.63
2018-10-17T08:30:29.869Z,9.61
2018-10-17T08:31:29.785Z,9.61
2018-10-17T08:32:29.774Z,9.6
2018-10-17T08:33:30.512Z,9.62
2018-10-17T08:34:30.103Z,9.65
2018-10-17T08:35:32.081Z,9.67
2018-10-17T08:36:32.554Z,9.65
2018-10-17T08:37:34.338Z,9.68
2018-10-17T08:38:29.749Z,9.68
2018-10-17T08:39:29.813Z,9.71
2018-10-17T08:40:29.759Z,9.72
2018-10-17T08:41:29.917Z,9.73
2018-10-17T08:42:30.233Z,9.74
2018-10-17T08:43:29.894Z,9.72
2018-10-17T08:44:30.081Z,9.72
2018-10-17T08:45:29.831Z,9.73
2018-10-17T08:47:29.788Z,9.71
2018-10-17T08:48:30.027Z,9.75
2018-10-17T08:49:29.799Z,9.75
2018-10-17T08:50:30.144Z,9.77
2018-10-17T08:51:29.836Z,9.8
2018-10-17T08:52:29.724Z,9.77
2018-10-17T08:53:29.856Z,9.8
2018-10-17T08:54:29.832Z,9.81
2018-10-17T08:55:29.727Z,9.78
2018-10-17T08:56:29.876Z,9.82
2018-10-17T08:57:29.884Z,9.76
2018-10-17T08:58:29.823Z,9.84
2018-10-17T08:59:29.822Z,9.86
2018-10-17T09:00:29.925Z,9.87
2018-10-17T09:01:29.744Z,9.87
2018-10-17T09:02:29.841Z,9.89
2018-10-17T09:03:29.749Z,9.81
2018-10-17T09:04:29.702Z,9.87
2018-10-17T09:05:30.552Z,9.87
2018-10-17T09:06:30.016Z,9.91
2018-10-17T09:07:29.725Z,9.84
2018-10-17T09:08:29.836Z,9.88
2018-10-17T09:09:29.713Z,9.88
2018-10-17T09:10:29.692Z,9.9
2018-10-17T09:11:29.754Z,9.93
2018-10-17T09:12:29.718Z,9.97
2018-10-17T09:13:30.224Z,9.97
2018-10-17T09:14:29.715Z,9.91
2018-10-17T09:15:29.756Z,9.96
2018-10-17T09:16:30.156Z,9.96
2018-10-17T09:17:29.711Z,10
2018-10-17T09:18:29.712Z,10
2018-10-17T09:19:31.557Z,10
2018-10-17T09:20:32.242Z,10.03
2018-10-17T09:21:31.809Z,9.96
2018-10-17T09:22:30.419Z,9.99
2018-10-17T09:23:29.742Z,9.98
2018-10-17T09:24:29.761Z,9.97
2018-10-17T09:25:29.933Z,9.97
2018-10-17T09:26:29.703Z,9.96
2018-10-17T09:27:29.886Z,9.97
2018-10-17T09:28:29.743Z,10.03
2018-10-17T09:29:29.723Z,10.02
2018-10-17T09:30:31.649Z,10.03
2018-10-17T09:31:29.790Z,9.96
2018-10-17T09:32:29.821Z,9.98
2018-10-17T09:33:29.720Z,10.03
2018-10-17T09:34:29.676Z,10.1
2018-10-17T09:35:29.979Z,10.08
2018-10-17T09:36:29.800Z,10.09
2018-10-17T09:37:29.658Z,10.1
2018-10-17T09:38:29.728Z,10.05
2018-10-17T09:39:29.879Z,10.07
2018-10-17T09:40:29.702Z,10.03
2018-10-17T09:41:30.022Z,10.06
2018-10-17T09:42:29.841Z,10.12
2018-10-17T09:43:29.719Z,10.05
2018-10-17T09:44:29.810Z,10.08
2018-10-17T09:45:29.713Z,10.07
2018-10-17T09:46:29.662Z,10.13
2018-10-17T09:47:29.713Z,10.12
2018-10-17T09:48:29.782Z,10.09
2018-10-17T09:49:29.755Z,10.04
2018-10-17T09:50:29.795Z,10.06
2018-10-17T09:51:30.026Z,10.06
2018-10-17T09:52:29.806Z,10.09
2018-10-17T09:53:30.964Z,10
2018-10-17T09:54:29.808Z,9.96
2018-10-17T09:55:29.762Z,9.94
2018-10-17T09:56:29.833Z,10.02
2018-10-17T09:57:29.732Z,10.09
2018-10-17T09:58:29.787Z,10.07
2018-10-17T09:59:30.056Z,10
2018-10-17T10:00:29.697Z,9.96
2018-10-17T10:01:29.807Z,10
2018-10-17T10:02:30.657Z,9.95
2018-10-17T10:03:29.717Z,9.9
2018-10-17T10:04:29.687Z,9.93
2018-10-17T10:05:29.700Z,9.95
2018-10-17T10:06:29.805Z,9.84
2018-10-17T10:07:29.754Z,9.81
2018-10-17T10:08:29.704Z,9.85
2018-10-17T10:09:29.654Z,9.8
2018-10-17T10:10:29.769Z,9.91
2018-10-17T10:11:29.752Z,9.95
2018-10-17T10:12:29.706Z,9.99
2018-10-17T10:13:29.767Z,9.87
2018-10-17T10:14:29.797Z,9.95
2018-10-17T10:15:29.770Z,9.82
2018-10-17T10:16:29.728Z,9.94
2018-10-17T10:17:30.174Z,9.95
2018-10-17T10:18:29.699Z,9.86
2018-10-17T10:19:29.752Z,9.89
2018-10-17T10:20:29.771Z,9.95
2018-10-17T10:21:29.618Z,9.98
2018-10-17T10:22:35.917Z,9.98
2018-10-17T10:23:29.995Z,10
2018-10-17T10:24:30.444Z,10.06
2018-10-17T10:25:29.632Z,10.02
2018-10-17T10:26:29.679Z,10.03
2018-10-17T10:27:29.706Z,9.83
2018-10-17T10:28:30.496Z,9.79
2018-10-17T10:29:29.801Z,9.78
2018-10-17T10:30:29.699Z,9.92
2018-10-17T10:31:29.687Z,9.98
2018-10-17T10:32:29.778Z,9.95
2018-10-17T10:33:29.650Z,9.91
2018-10-17T10:34:29.654Z,9.89
2018-10-17T10:35:30.023Z,9.87
2018-10-17T10:36:29.620Z,9.93
2018-10-17T10:37:29.698Z,10.01
2018-10-17T10:38:29.618Z,9.99
2018-10-17T10:39:29.889Z,9.96
2018-10-17T10:40:30.104Z,9.95
2018-10-17T10:41:29.648Z,9.97
2018-10-17T10:42:29.670Z,10.01
2018-10-17T10:43:29.628Z,9.94
2018-10-17T10:45:30.216Z,9.88
2018-10-17T10:46:29.885Z,9.81
2018-10-17T10:47:29.624Z,9.92
2018-10-17T10:48:29.613Z,9.92
2018-10-17T10:49:29.621Z,9.97
2018-10-17T10:50:29.631Z,9.97
2018-10-17T10:51:30.113Z,9.95
2018-10-17T10:52:29.625Z,9.92
2018-10-17T10:53:29.668Z,9.93
2018-10-17T10:54:30.000Z,9.85
2018-10-17T10:55:29.573Z,9.89
2018-10-17T10:56:29.633Z,9.87
2018-10-17T10:57:29.773Z,9.88
2018-10-17T10:58:31.535Z,9.97
2018-10-17T10:59:31.585Z,9.98
2018-10-17T11:00:29.598Z,9.98
2018-10-17T11:01:29.784Z,9.85
2018-10-17T11:02:29.703Z,9.87
2018-10-17T11:03:29.919Z,9.94
2018-10-17T11:04:29.961Z,9.99
2018-10-17T11:05:31.835Z,9.85
2018-10-17T11:06:29.614Z,9.84
2018-10-17T11:07:29.607Z,9.81
2018-10-17T11:08:29.611Z,9.91
2018-10-17T11:09:29.666Z,9.87
2018-10-17T11:10:29.591Z,9.87
2018-10-17T11:11:29.805Z,9.87
2018-10-17T11:12:29.761Z,9.93
2018-10-17T11:13:29.561Z,9.86
2018-10-17T11:14:30.992Z,9.91
2018-10-17T11:15:29.708Z,9.92
2018-10-17T11:16:29.670Z,10.03
2018-10-17T11:17:29.669Z,9.99
2018-10-17T11:18:29.892Z,10.05
2018-10-17T11:19:29.192Z,10.03
2018-10-17T11:20:29.764Z,9.98
2018-10-17T11:21:29.536Z,9.93
2018-10-17T11:22:29.745Z,9.86
2018-10-17T11:23:29.517Z,9.91
2018-10-17T11:24:29.566Z,10.04
2018-10-17T11:25:29.629Z,10
2018-10-17T11:26:29.529Z,9.93
2018-10-17T11:27:29.978Z,9.94
2018-10-17T11:28:29.558Z,9.93
2018-10-17T11:29:29.581Z,10.01
2018-10-17T11:30:29.691Z,9.98
2018-10-17T11:31:30.120Z,9.94
2018-10-17T11:32:29.508Z,10.05
2018-10-17T11:33:29.668Z,10.07
2018-10-17T11:34:29.539Z,9.91
2018-10-17T11:35:29.502Z,9.91
2018-10-17T11:36:29.516Z,9.9
2018-10-17T11:37:30.496Z,9.86
2018-10-17T11:38:29.676Z,9.85
2018-10-17T11:39:29.645Z,9.83
2018-10-17T11:40:30.191Z,9.89
2018-10-17T11:41:30.109Z,9.88
2018-10-17T11:42:29.603Z,9.83
2018-10-17T11:43:29.692Z,9.89
2018-10-17T11:44:29.489Z,9.9
2018-10-17T11:45:29.599Z,9.8
2018-10-17T11:46:29.502Z,9.84
2018-10-17T11:47:29.960Z,9.83
2018-10-17T11:48:29.625Z,9.81
2018-10-17T11:49:29.695Z,9.82
2018-10-17T11:50:29.816Z,9.78
2018-10-17T11:51:29.621Z,9.84
2018-10-17T11:52:29.612Z,9.83
2018-10-17T11:53:29.638Z,9.86
2018-10-17T11:54:29.575Z,9.84
2018-10-17T11:55:29.485Z,9.79
2018-10-17T11:56:29.748Z,9.91
2018-10-17T11:57:29.537Z,10.07
2018-10-17T11:58:29.528Z,10.06
2018-10-17T11:59:29.799Z,9.97
2018-10-17T12:00:29.497Z,9.89
2018-10-17T12:01:29.587Z,9.93
2018-10-17T12:02:29.485Z,9.78
2018-10-17T12:03:29.965Z,9.8
2018-10-17T12:04:31.506Z,9.81
2018-10-17T12:05:33.183Z,9.82
2018-10-17T12:06:30.814Z,9.98
2018-10-17T12:07:29.516Z,9.84
2018-10-17T12:08:29.586Z,9.97
2018-10-17T12:09:29.660Z,9.92
2018-10-17T12:10:29.479Z,9.83
2018-10-17T12:11:30.819Z,9.83
2018-10-17T12:12:29.714Z,9.87
2018-10-17T12:13:29.635Z,9.93
2018-10-17T12:14:29.472Z,9.91
2018-10-17T12:15:29.593Z,9.84
2018-10-17T12:16:29.547Z,9.94
2018-10-17T12:17:29.481Z,9.84
2018-10-17T12:18:29.560Z,9.84
2018-10-17T12:19:29.538Z,9.84
2018-10-17T12:20:29.494Z,9.86
2018-10-17T12:21:30.505Z,9.9
2018-10-17T12:22:29.510Z,9.89
2018-10-17T12:23:29.651Z,9.96
2018-10-17T12:24:29.492Z,10.04
2018-10-17T12:25:29.543Z,10.01
2018-10-17T12:26:29.433Z,10.05
2018-10-17T12:27:29.562Z,10.02
2018-10-17T12:28:30.659Z,9.88
2018-10-17T12:29:29.510Z,9.93
2018-10-17T12:30:29.903Z,9.92
2018-10-17T12:31:29.471Z,9.88
2018-10-17T12:32:29.568Z,9.82
2018-10-17T12:33:29.454Z,9.88
2018-10-17T12:34:29.556Z,9.81
2018-10-17T12:35:29.483Z,9.87
2018-10-17T12:36:29.473Z,9.88
2018-10-17T12:37:29.539Z,9.88
2018-10-17T12:38:29.865Z,9.81
2018-10-17T12:39:31.122Z,9.87
2018-10-17T12:40:30.970Z,9.89
2018-10-17T12:41:30.184Z,9.84
2018-10-17T12:42:29.487Z,9.88
2018-10-17T12:43:29.495Z,9.89
2018-10-17T12:44:29.588Z,9.85
2018-10-17T12:45:29.823Z,9.86
2018-10-17T12:46:29.812Z,9.83
2018-10-17T12:47:29.554Z,9.84
2018-10-17T12:48:29.496Z,9.76
2018-10-17T12:49:29.529Z,9.82
2018-10-17T12:50:29.496Z,9.79
2018-10-17T12:51:29.434Z,9.75
2018-10-17T12:52:30.296Z,9.89
2018-10-17T12:53:30.113Z,9.91
2018-10-17T12:54:29.556Z,9.9
2018-10-17T12:55:29.564Z,9.94
2018-10-17T12:56:29.795Z,9.92
2018-10-17T12:57:29.499Z,9.82
2018-10-17T12:58:29.686Z,9.85
2018-10-17T12:59:29.489Z,9.95
2018-10-17T13:00:29.477Z,9.9
2018-10-17T13:01:29.581Z,9.96
2018-10-17T13:02:29.524Z,10.09
2018-10-17T13:03:29.385Z,10.17
2018-10-17T13:04:29.592Z,10.18
2018-10-17T13:05:29.456Z,10.17
2018-10-17T13:07:29.573Z,10.11
2018-10-17T13:08:29.601Z,10.02
2018-10-17T13:09:29.780Z,10.04
2018-10-17T13:10:29.693Z,10.12
2018-10-17T13:11:30.258Z,10.03
2018-10-17T13:12:29.408Z,9.99
2018-10-17T13:13:29.443Z,9.99
2018-10-17T13:14:30.582Z,10
2018-10-17T13:15:29.670Z,9.99
2018-10-17T13:16:29.465Z,10.03
2018-10-17T13:17:29.622Z,10
2018-10-17T13:18:29.451Z,10
2018-10-17T13:19:29.705Z,10.07
2018-10-17T13:20:29.594Z,10.02
2018-10-17T13:21:29.655Z,10.09
2018-10-17T13:22:29.576Z,10.01
2018-10-17T13:23:29.428Z,10
2018-10-17T13:24:31.086Z,10.04
2018-10-17T13:25:29.540Z,9.94